LIMW/AOT METAR and TAF weather

Enter ICAO airport designator
Station Type Date Time Source
LIMW METAR 2019/02/16 17:20 UTC NOAA

LIMW 161720Z AUTO VRB01KT 9999 NCD 08/M04 Q1030


Station Type Date Time Source
LIMW Decoded METAR 2019/02/16 17:20 UTC NOAA

Station name not available
Feb 16, 2019 - 12:20 PM EST / 2019.02.16 1720 UTC
Wind: Variable at 1 MPH (1 KT):0
Visibility: greater than 7 mile(s):0
Temperature: 46 F (8 C)
Dew Point: 24 F (-4 C)
Relative Humidity: 42%
Pressure (altimeter): 30.42 in. Hg (1030 hPa)
ob: LIMW 161720Z AUTO VRB01KT 9999 NCD 08/M04 Q1030
cycle: 17

Station Type Date Time Source
LIMW TAF UTC NOAA

Error!


Example: see airport list